Time;durP1;ratioP1;P1;durP2;ratioP2;P2;SDS_P1;SDS_P2;PMS_P1;PMS_P2;Temp;Humidity;BMP_temperature;BMP_pressure;BME280_temperature;BME280_humidity;BME280_pressure;Samples;Min_cycle;Max_cycle;Signal;HPM_P1;HPM_P2
2022/04/27 00:00:02;;;;;;;46.60;16.25;;;;;;;6.48;100.00;102009.50;4951556;28;20459;-80
2022/04/27 00:02:30;;;;;;;39.35;16.50;;;;;;;6.48;100.00;102012.22;4940438;28;20059;-80
2022/04/27 00:04:57;;;;;;;37.13;15.90;;;;;;;6.47;100.00;102005.91;4959094;28;20043;-80
2022/04/27 00:07:23;;;;;;;36.47;16.17;;;;;;;6.34;100.00;102004.69;4958612;28;20137;-80
2022/04/27 00:09:48;;;;;;;47.72;16.67;;;;;;;6.26;100.00;102005.00;4951793;28;20062;-80
2022/04/27 00:12:14;;;;;;;41.38;16.13;;;;;;;6.25;100.00;102005.97;4962042;28;20403;-80
2022/04/27 00:14:39;;;;;;;33.97;16.35;;;;;;;6.18;100.00;101994.47;4942673;28;20438;-80
2022/04/27 00:17:05;;;;;;;43.13;16.20;;;;;;;6.28;100.00;102008.56;4969105;28;20516;-80
2022/04/27 00:19:30;;;;;;;47.80;16.40;;;;;;;6.34;100.00;102005.56;4962380;28;20030;-81
2022/04/27 00:21:56;;;;;;;52.47;16.73;;;;;;;6.33;100.00;102003.81;4976664;28;20555;-81
2022/04/27 00:24:22;;;;;;;48.92;16.48;;;;;;;6.34;100.00;101991.06;4977002;28;20460;-80
2022/04/27 00:26:47;;;;;;;46.33;15.48;;;;;;;6.35;100.00;101991.00;4961376;28;20030;-80
2022/04/27 00:29:13;;;;;;;37.88;16.60;;;;;;;6.24;100.00;101994.19;4959952;28;20057;-81
2022/04/27 00:31:38;;;;;;;45.70;16.17;;;;;;;6.18;100.00;101990.84;4975958;28;20611;-81
2022/04/27 00:34:04;;;;;;;62.85;17.95;;;;;;;6.25;100.00;101990.53;4976148;28;20106;-81
2022/04/27 00:36:31;;;;;;;54.53;16.73;;;;;;;6.20;100.00;102000.72;4976250;28;20046;-81
2022/04/27 00:38:58;;;;;;;52.80;17.35;;;;;;;6.20;100.00;102000.72;4959526;28;20427;-80
2022/04/27 00:41:23;;;;;;;51.55;17.13;;;;;;;6.21;100.00;101993.44;4972098;28;20062;-81
2022/04/27 00:43:49;;;;;;;40.88;15.50;;;;;;;6.22;100.00;101996.09;4959918;28;20050;-81
2022/04/27 00:46:14;;;;;;;51.45;16.67;;;;;;;6.10;100.00;101999.34;4971139;28;20039;-80
2022/04/27 00:48:41;;;;;;;45.40;17.65;;;;;;;6.12;100.00;101997.44;4956634;28;20363;-80
2022/04/27 00:51:10;;;;;;;58.35;17.75;;;;;;;6.03;100.00;101992.38;4944537;28;20050;-80
2022/04/27 00:53:37;;;;;;;46.53;17.45;;;;;;;6.02;100.00;101996.94;4975766;28;20029;-80
2022/04/27 00:56:03;;;;;;;45.95;17.70;;;;;;;5.98;100.00;101997.13;4948689;28;20089;-81
2022/04/27 00:58:29;;;;;;;46.22;17.40;;;;;;;5.95;100.00;102006.28;4974879;28;20041;-80
2022/04/27 01:00:55;;;;;;;37.90;17.38;;;;;;;5.89;100.00;102009.22;4959281;28;20501;-80
2022/04/27 01:03:22;;;;;;;43.03;17.38;;;;;;;5.82;100.00;102011.31;4986816;28;20046;-81
2022/04/27 01:05:48;;;;;;;45.75;17.42;;;;;;;5.88;100.00;102005.59;4949988;28;20045;-81
2022/04/27 01:08:16;;;;;;;53.40;18.33;;;;;;;5.82;100.00;102007.69;4989759;28;20031;-80
2022/04/27 01:10:44;;;;;;;47.70;17.02;;;;;;;5.88;100.00;102004.72;4991337;28;20493;-80
2022/04/27 01:13:11;;;;;;;46.05;17.33;;;;;;;5.76;100.00;102019.72;4970426;28;20062;-81
2022/04/27 01:15:37;;;;;;;49.55;17.38;;;;;;;5.77;100.00;102017.88;4975140;28;20464;-81
2022/04/27 01:18:03;;;;;;;54.10;17.52;;;;;;;5.75;100.00;102017.94;4960753;28;20043;-81
2022/04/27 01:20:31;;;;;;;43.47;16.88;;;;;;;5.64;100.00;102020.19;4975869;28;20022;-80
2022/04/27 01:22:59;;;;;;;40.30;15.50;;;;;;;5.60;100.00;102018.56;4974819;28;20407;-81
2022/04/27 01:25:24;;;;;;;39.42;15.35;;;;;;;5.65;100.00;102021.97;4977613;28;20038;-81
2022/04/27 01:27:50;;;;;;;33.05;14.60;;;;;;;5.58;100.00;102017.75;4961597;28;20038;-81
2022/04/27 01:30:16;;;;;;;39.60;14.82;;;;;;;5.57;100.00;102018.66;4967203;28;20035;-81
2022/04/27 01:32:41;;;;;;;38.38;14.90;;;;;;;5.61;100.00;102029.38;4959424;28;20031;-80
2022/04/27 01:35:07;;;;;;;32.15;13.80;;;;;;;5.56;100.00;102028.66;4955409;28;20035;-80
2022/04/27 01:40:17;;;;;;;37.55;13.35;;;;;;;5.55;100.00;102035.03;4973587;28;20046;-79
2022/04/27 01:42:42;;;;;;;26.30;13.38;;;;;;;5.57;100.00;102033.13;4979461;28;20372;-80
2022/04/27 01:45:08;;;;;;;33.25;13.35;;;;;;;5.50;100.00;102020.75;4960189;28;20039;-81
2022/04/27 01:47:34;;;;;;;30.65;12.65;;;;;;;5.56;100.00;102025.94;4959158;28;20043;-81
2022/04/27 01:49:59;;;;;;;33.28;13.27;;;;;;;5.52;100.00;102024.28;4931996;29;20035;-81
2022/04/27 01:55:09;;;;;;;37.80;12.40;;;;;;;5.41;100.00;102023.81;4973320;28;20043;-81
2022/04/27 01:57:34;;;;;;;30.83;13.68;;;;;;;5.39;100.00;102028.41;4974210;28;20046;-81
2022/04/27 02:00:00;;;;;;;20.77;12.23;;;;;;;5.40;100.00;102027.50;4973016;28;20035;-81
2022/04/27 02:02:25;;;;;;;27.45;12.18;;;;;;;5.37;100.00;102025.75;4975579;28;20042;-81
2022/04/27 02:04:51;;;;;;;27.15;11.75;;;;;;;5.32;100.00;102038.63;4937489;28;20110;-80
2022/04/27 02:07:16;;;;;;;27.48;11.45;;;;;;;5.26;100.00;102041.56;4993760;28;20050;-80
2022/04/27 02:09:42;;;;;;;22.83;11.23;;;;;;;5.23;100.00;102041.69;4990201;28;20046;-80
2022/04/27 02:12:08;;;;;;;22.63;11.23;;;;;;;5.23;100.00;102044.41;4967039;28;20039;-80
2022/04/27 02:14:33;;;;;;;26.38;11.45;;;;;;;5.20;100.00;102050.84;4935675;28;20069;-79
2022/04/27 02:16:59;;;;;;;20.10;11.15;;;;;;;5.19;100.00;102045.47;4979491;28;20042;-79
2022/04/27 02:19:25;;;;;;;19.38;10.88;;;;;;;5.10;100.00;102055.72;4964420;28;20043;-80
2022/04/27 02:21:50;;;;;;;19.13;10.68;;;;;;;5.11;100.00;102049.34;4964429;28;20121;-79
2022/04/27 02:24:16;;;;;;;21.90;10.75;;;;;;;5.24;100.00;102048.91;4991977;28;20047;-81
2022/04/27 02:26:42;;;;;;;21.13;10.88;;;;;;;5.22;100.00;102064.38;4994417;28;20052;-80
2022/04/27 02:29:09;;;;;;;23.02;10.20;;;;;;;5.03;100.00;102054.16;4959213;28;20071;-80
2022/04/27 02:31:34;;;;;;;19.02;10.55;;;;;;;4.99;100.00;102066.09;4975349;28;20034;-80
2022/04/27 02:34:00;;;;;;;24.70;10.73;;;;;;;4.88;100.00;102061.03;4978398;28;20070;-81
2022/04/27 02:36:26;;;;;;;20.23;11.43;;;;;;;4.70;100.00;102064.41;4976303;28;20089;-81
2022/04/27 02:38:52;;;;;;;23.02;10.32;;;;;;;4.69;100.00;102062.63;4978928;28;20030;-80
2022/04/27 02:41:17;;;;;;;15.80;10.27;;;;;;;4.64;100.00;102070.03;4981250;28;20046;-81
2022/04/27 02:43:43;;;;;;;25.48;10.75;;;;;;;4.68;100.00;102077.16;4978889;28;20051;-81
2022/04/27 02:46:08;;;;;;;20.10;10.48;;;;;;;4.66;100.00;102069.06;4979661;28;20042;-81
2022/04/27 02:48:34;;;;;;;14.23;9.77;;;;;;;4.62;100.00;102066.50;4960529;29;20575;-81
2022/04/27 02:53:43;;;;;;;14.13;9.75;;;;;;;4.50;100.00;102075.97;4972163;28;20037;-81
2022/04/27 02:56:10;;;;;;;17.77;10.18;;;;;;;4.49;100.00;102087.72;4977843;28;20119;-81
2022/04/27 02:58:36;;;;;;;15.82;9.50;;;;;;;4.45;100.00;102084.25;4958034;28;20048;-81
2022/04/27 03:01:01;;;;;;;17.17;9.82;;;;;;;4.29;100.00;102070.31;4925336;28;20045;-81
2022/04/27 03:03:27;;;;;;;20.92;10.02;;;;;;;4.26;100.00;102081.25;4962971;28;20380;-81
2022/04/27 03:05:52;;;;;;;17.80;9.48;;;;;;;4.32;100.00;102077.47;4960944;28;20043;-80
2022/04/27 03:08:18;;;;;;;16.60;9.38;;;;;;;4.26;100.00;102083.06;4945797;28;20035;-81
2022/04/27 03:10:43;;;;;;;22.88;10.15;;;;;;;4.36;100.00;102084.53;4970461;28;20035;-81
2022/04/27 03:13:09;;;;;;;15.60;9.65;;;;;;;4.33;100.00;102074.69;4934390;29;20039;-81
2022/04/27 03:15:34;;;;;;;20.17;9.57;;;;;;;4.35;100.00;102070.09;4947759;28;20046;-81
2022/04/27 03:18:19;;;;;;;15.90;9.10;;;;;;;4.44;100.00;102079.75;4976687;28;20102;-81
2022/04/27 03:20:47;;;;;;;16.55;8.93;;;;;;;4.29;100.00;102082.97;4962391;28;20407;-81
2022/04/27 03:23:13;;;;;;;18.30;9.25;;;;;;;4.24;100.00;102075.00;4953458;28;20501;-82
2022/04/27 03:25:39;;;;;;;13.52;8.82;;;;;;;4.35;100.00;102071.94;4977954;28;20089;-81
2022/04/27 03:28:04;;;;;;;20.60;9.32;;;;;;;4.30;100.00;102077.50;4947037;28;20046;-81
2022/04/27 03:30:30;;;;;;;16.52;8.98;;;;;;;4.28;100.00;102083.91;4942921;29;20130;-82
2022/04/27 03:32:55;;;;;;;19.30;9.90;;;;;;;4.24;100.00;102083.13;4959359;28;20038;-81
2022/04/27 03:35:21;;;;;;;21.80;10.10;;;;;;;4.20;100.00;102082.34;4977868;28;20097;-81
2022/04/27 03:37:46;;;;;;;15.48;8.82;;;;;;;4.15;100.00;102067.16;4961751;28;20034;-80
2022/04/27 03:40:11;;;;;;;14.27;8.63;;;;;;;4.17;100.00;102085.16;4970766;28;20562;-82
2022/04/27 03:42:37;;;;;;;20.63;9.52;;;;;;;4.01;100.00;102084.75;4959291;28;20051;-82
2022/04/27 03:45:03;;;;;;;19.60;9.85;;;;;;;3.93;100.00;102092.25;4960128;28;20121;-82
2022/04/27 03:47:28;;;;;;;24.48;10.13;;;;;;;3.80;100.00;102089.00;4961865;28;20064;-81
2022/04/27 03:50:03;;;;;;;20.50;10.05;;;;;;;3.71;100.00;102089.31;4958638;28;20201;-81
2022/04/27 03:52:30;;;;;;;19.45;10.63;;;;;;;3.73;100.00;102097.41;4961008;28;20035;-81
2022/04/27 03:54:59;;;;;;;18.35;10.00;;;;;;;3.72;100.00;102101.03;4959581;28;20406;-81
2022/04/27 03:57:25;;;;;;;23.42;10.48;;;;;;;3.70;100.00;102109.19;4961207;28;20038;-81
2022/04/27 03:59:51;;;;;;;19.45;11.30;;;;;;;3.73;100.00;102098.28;4961651;28;20031;-80
2022/04/27 04:02:17;;;;;;;23.00;11.00;;;;;;;3.68;100.00;102103.81;4975518;28;20391;-80
2022/04/27 04:04:42;;;;;;;16.45;10.05;;;;;;;3.71;100.00;102108.28;4976761;28;20035;-81
2022/04/27 04:07:08;;;;;;;18.92;10.07;;;;;;;3.72;100.00;102111.88;4977433;28;20114;-81
2022/04/27 04:09:33;;;;;;;19.15;10.60;;;;;;;3.72;100.00;102109.16;4945300;28;20070;-81
2022/04/27 04:11:58;;;;;;;22.48;10.70;;;;;;;3.72;100.00;102118.16;4976040;28;20429;-81
2022/04/27 04:14:24;;;;;;;22.17;10.60;;;;;;;3.66;100.00;102113.81;4976518;28;20035;-79
2022/04/27 04:16:49;;;;;;;24.80;10.30;;;;;;;3.74;100.00;102121.72;4976104;28;20047;-80
2022/04/27 04:19:15;;;;;;;17.38;10.13;;;;;;;3.75;100.00;102122.59;4952206;29;20035;-80
2022/04/27 04:21:41;;;;;;;16.75;9.93;;;;;;;3.70;100.00;102124.56;4961952;28;20035;-80
2022/04/27 04:24:06;;;;;;;14.73;10.45;;;;;;;3.63;100.00;102122.03;4972182;28;20043;-80
2022/04/27 04:29:16;;;;;;;20.63;10.43;;;;;;;3.68;100.00;102135.44;4975775;28;20549;-80
2022/04/27 04:31:41;;;;;;;21.05;10.70;;;;;;;3.77;100.00;102127.06;4975788;28;20042;-81
2022/04/27 04:34:07;;;;;;;28.55;11.35;;;;;;;3.77;100.00;102129.78;4958004;28;20394;-79
2022/04/27 04:36:32;;;;;;;24.48;10.82;;;;;;;3.90;100.00;102134.81;4960122;28;20398;-79
2022/04/27 04:38:58;;;;;;;23.33;10.55;;;;;;;3.82;100.00;102137.72;4976254;28;20049;-81
2022/04/27 04:41:23;;;;;;;24.33;10.98;;;;;;;3.80;100.00;102139.59;4938058;29;20039;-80
2022/04/27 04:43:49;;;;;;;16.90;11.30;;;;;;;3.84;100.00;102138.59;4990396;28;20059;-80
2022/04/27 04:46:14;;;;;;;20.08;11.70;;;;;;;3.77;100.00;102139.69;4959016;28;20070;-80
2022/04/27 04:48:40;;;;;;;24.90;11.57;;;;;;;3.89;100.00;102150.19;4960233;28;20035;-80
2022/04/27 04:51:05;;;;;;;22.25;12.15;;;;;;;3.77;100.00;102153.25;4959383;28;20031;-80
2022/04/27 04:53:31;;;;;;;21.35;11.73;;;;;;;3.81;100.00;102142.28;4975181;28;20034;-80
2022/04/27 04:55:56;;;;;;;19.10;11.57;;;;;;;3.87;100.00;102154.75;4940399;28;20086;-80
2022/04/27 04:58:22;;;;;;;24.65;11.25;;;;;;;3.91;100.00;102163.69;4973553;28;20101;-79
2022/04/27 05:00:48;;;;;;;19.05;11.68;;;;;;;3.83;100.00;102159.34;4942425;28;20847;-80
2022/04/27 05:03:14;;;;;;;19.38;11.45;;;;;;;3.82;100.00;102149.47;4926682;28;20110;-80
2022/04/27 05:05:43;;;;;;;18.67;12.50;;;;;;;3.84;100.00;102152.16;4970968;28;20033;-81
2022/04/27 05:08:09;;;;;;;20.25;11.98;;;;;;;4.00;100.00;102160.66;4968803;28;20389;-80
2022/04/27 05:10:35;;;;;;;17.27;11.63;;;;;;;3.98;100.00;102165.25;4957789;28;20031;-80
2022/04/27 05:13:01;;;;;;;19.23;11.45;;;;;;;4.00;100.00;102172.41;4972476;28;20043;-80
2022/04/27 05:15:26;;;;;;;20.42;12.55;;;;;;;4.12;100.00;102172.97;4959421;28;20038;-81
2022/04/27 05:17:52;;;;;;;19.58;12.93;;;;;;;4.29;100.00;102173.31;4975179;28;20034;-80
2022/04/27 05:20:17;;;;;;;25.42;12.20;;;;;;;4.46;100.00;102172.81;4927639;28;20091;-80
2022/04/27 05:22:42;;;;;;;21.52;12.50;;;;;;;4.44;100.00;102176.50;4958599;28;20035;-80
2022/04/27 05:25:09;;;;;;;24.48;13.57;;;;;;;4.62;100.00;102185.84;4957823;28;20031;-80
2022/04/27 05:27:36;;;;;;;27.70;12.85;;;;;;;4.69;100.00;102185.63;4945234;28;20046;-80
2022/04/27 05:32:47;;;;;;;22.58;11.75;;;;;;;5.00;100.00;102191.81;4976448;28;20147;-80
2022/04/27 05:35:13;;;;;;;26.67;12.48;;;;;;;5.13;100.00;102188.66;4975162;28;20052;-80
2022/04/27 05:37:39;;;;;;;21.98;12.70;;;;;;;5.27;100.00;102199.00;4966786;28;20038;-80
2022/04/27 05:40:06;;;;;;;21.08;11.25;;;;;;;5.40;100.00;102194.03;4959923;28;20121;-81
2022/04/27 05:42:31;;;;;;;22.27;12.05;;;;;;;5.52;100.00;102198.13;4975039;28;20490;-81
2022/04/27 05:44:58;;;;;;;23.67;12.30;;;;;;;5.73;100.00;102187.44;4959325;28;20043;-78
2022/04/27 05:47:25;;;;;;;22.13;12.32;;;;;;;5.98;100.00;102198.28;4972996;28;20046;-80
2022/04/27 05:49:51;;;;;;;20.80;11.55;;;;;;;6.20;100.00;102198.34;4959914;28;20116;-79
2022/04/27 05:52:20;;;;;;;17.38;11.63;;;;;;;6.27;100.00;102193.56;4943138;28;20073;-79
2022/04/27 05:54:47;;;;;;;19.67;11.25;;;;;;;6.47;100.00;102207.25;4978595;28;20121;-79
2022/04/27 05:57:12;;;;;;;16.42;11.05;;;;;;;6.73;100.00;102210.75;4948512;28;20543;-79
2022/04/27 05:59:38;;;;;;;16.45;11.35;;;;;;;7.05;100.00;102209.41;4975574;28;20096;-79
2022/04/27 06:02:03;;;;;;;20.77;10.93;;;;;;;6.97;100.00;102211.56;4941911;28;20494;-79
2022/04/27 06:04:29;;;;;;;18.88;10.57;;;;;;;7.20;100.00;102226.03;4969269;28;20042;-79
2022/04/27 06:06:54;;;;;;;20.80;11.63;;;;;;;7.42;100.00;102218.69;4937906;28;20491;-78
2022/04/27 06:09:20;;;;;;;18.08;10.73;;;;;;;7.71;100.00;102227.44;4936823;28;20598;-79
2022/04/27 06:11:46;;;;;;;18.20;10.65;;;;;;;7.62;100.00;102220.53;4958591;28;20456;-79
2022/04/27 06:14:12;;;;;;;16.35;11.25;;;;;;;7.83;100.00;102226.84;4974268;28;20066;-80
2022/04/27 06:16:37;;;;;;;20.85;10.85;;;;;;;7.87;100.00;102228.50;4960706;28;20039;-82
2022/04/27 06:19:03;;;;;;;20.70;11.55;;;;;;;8.16;100.00;102228.97;4941105;28;20519;-80
2022/04/27 06:21:33;;;;;;;20.60;11.00;;;;;;;8.09;100.00;102227.50;4987628;28;20073;-80
2022/04/27 06:24:04;;;;;;;15.75;10.27;;;;;;;8.28;100.00;102231.16;4957100;28;20033;-81
2022/04/27 06:26:33;;;;;;;15.10;10.63;;;;;;;8.77;100.00;102237.94;4986440;28;20137;-80
2022/04/27 06:28:59;;;;;;;15.50;9.85;;;;;;;8.69;100.00;102231.97;4925686;28;20065;-78
2022/04/27 06:31:24;;;;;;;21.25;11.07;;;;;;;8.83;100.00;102230.34;4940742;28;20038;-78
2022/04/27 06:33:50;;;;;;;18.73;10.00;;;;;;;8.91;100.00;102231.81;4972125;28;20085;-79
2022/04/27 06:36:16;;;;;;;19.20;10.52;;;;;;;9.27;100.00;102239.13;4954914;28;20109;-80
2022/04/27 06:38:41;;;;;;;17.15;10.13;;;;;;;9.33;100.00;102238.78;4974519;28;20046;-80
2022/04/27 06:41:07;;;;;;;15.02;9.93;;;;;;;9.54;100.00;102243.16;4957166;28;20481;-80
2022/04/27 06:43:32;;;;;;;15.48;9.50;;;;;;;9.66;100.00;102240.75;4972380;28;20051;-79
2022/04/27 06:45:59;;;;;;;19.08;10.48;;;;;;;9.82;100.00;102240.78;4956820;28;20141;-78
2022/04/27 06:48:25;;;;;;;17.48;11.00;;;;;;;9.92;100.00;102250.28;4955858;28;20506;-80
2022/04/27 06:50:50;;;;;;;19.15;10.10;;;;;;;10.39;100.00;102244.06;4974260;28;20031;-81
2022/04/27 06:53:16;;;;;;;13.15;9.40;;;;;;;11.18;100.00;102243.19;4935320;28;20026;-81
2022/04/27 06:55:42;;;;;;;17.48;9.70;;;;;;;11.18;100.00;102250.50;4974236;28;20043;-80
2022/04/27 06:58:07;;;;;;;27.13;11.15;;;;;;;10.79;100.00;102250.03;4941524;28;20130;-80
2022/04/27 07:00:33;;;;;;;20.92;10.23;;;;;;;10.85;100.00;102248.78;4958303;28;20058;-80
2022/04/27 07:02:59;;;;;;;18.40;10.30;;;;;;;11.30;100.00;102248.91;4953596;28;20046;-80
2022/04/27 07:05:26;;;;;;;18.27;10.60;;;;;;;11.73;100.00;102254.53;4954926;28;20434;-81
2022/04/27 07:07:52;;;;;;;26.55;10.18;;;;;;;12.55;99.08;102247.53;4971293;28;20050;-78
2022/04/27 07:10:19;;;;;;;19.63;10.18;;;;;;;12.18;100.00;102254.53;4968761;28;20045;-81
2022/04/27 07:12:48;;;;;;;18.85;10.27;;;;;;;11.68;100.00;102253.94;4970417;28;20027;-80
2022/04/27 07:15:14;;;;;;;18.02;10.15;;;;;;;11.74;100.00;102256.28;4957988;28;20038;-80
2022/04/27 07:17:40;;;;;;;17.73;8.70;;;;;;;12.10;100.00;102274.22;4952389;28;20031;-80
2022/04/27 07:20:06;;;;;;;20.08;9.27;;;;;;;12.11;99.50;102265.00;4990436;28;20043;-80
2022/04/27 07:22:31;;;;;;;15.40;8.40;;;;;;;13.01;93.72;102258.25;4973700;28;20035;-79
2022/04/27 07:24:57;;;;;;;13.60;8.32;;;;;;;13.52;90.41;102259.47;4970585;28;20042;-79
2022/04/27 07:27:23;;;;;;;14.27;8.73;;;;;;;12.96;94.49;102271.41;4925515;28;20122;-81
2022/04/27 07:29:48;;;;;;;15.50;8.05;;;;;;;12.81;95.23;102273.31;4975115;28;20410;-82
2022/04/27 07:32:14;;;;;;;18.20;8.10;;;;;;;14.05;89.75;102268.59;4975007;28;20094;-81
2022/04/27 07:34:39;;;;;;;14.75;7.32;;;;;;;13.88;88.69;102271.63;4959785;28;20034;-81
2022/04/27 07:37:05;;;;;;;15.30;7.55;;;;;;;13.57;89.02;102274.66;4958931;28;20045;-81
2022/04/27 07:39:32;;;;;;;12.13;6.80;;;;;;;13.82;85.89;102274.81;4971593;28;20081;-80
2022/04/27 07:41:57;;;;;;;10.23;6.72;;;;;;;13.88;86.65;102279.91;4986776;28;20067;-80
2022/04/27 07:44:23;;;;;;;11.52;5.97;;;;;;;14.50;77.30;102276.38;4973674;28;20545;-80
2022/04/27 07:46:49;;;;;;;12.70;7.13;;;;;;;14.38;82.03;102280.03;4941366;28;20118;-80
2022/04/27 07:49:19;;;;;;;12.55;6.63;;;;;;;14.05;85.57;102279.59;4971819;28;20090;-80
2022/04/27 07:51:49;;;;;;;11.40;5.93;;;;;;;15.32;74.46;102284.13;4940268;28;20530;-79
2022/04/27 07:54:15;;;;;;;15.05;5.90;;;;;;;13.90;81.83;102284.28;4958597;28;20126;-80
2022/04/27 07:56:41;;;;;;;12.40;6.70;;;;;;;14.01;82.16;102289.06;4942121;28;20126;-80
2022/04/27 07:59:06;;;;;;;10.05;6.43;;;;;;;14.77;75.53;102284.50;4988528;28;20038;-79
2022/04/27 08:01:32;;;;;;;13.02;6.72;;;;;;;14.91;74.85;102282.63;4963002;28;20078;-79
2022/04/27 08:03:58;;;;;;;8.48;4.53;;;;;;;14.49;72.16;102277.38;4962034;28;20559;-81
2022/04/27 08:06:24;;;;;;;11.45;5.03;;;;;;;14.79;71.59;102295.44;4943602;28;20047;-78
2022/04/27 08:08:49;;;;;;;7.25;4.82;;;;;;;14.82;68.38;102285.09;4970480;28;20038;-78
2022/04/27 08:11:15;;;;;;;6.05;3.50;;;;;;;15.70;62.78;102297.72;4986833;28;20027;-78
2022/04/27 08:13:44;;;;;;;6.82;3.58;;;;;;;14.27;67.73;102289.94;4958643;28;20043;-77
2022/04/27 08:16:11;;;;;;;7.05;3.35;;;;;;;14.45;69.33;102289.63;4987315;28;20061;-77
2022/04/27 08:18:40;;;;;;;5.60;2.50;;;;;;;14.58;66.00;102295.13;4972926;28;20647;-79
2022/04/27 08:21:16;;;;;;;8.32;3.75;;;;;;;15.32;65.99;102296.06;4974935;28;20451;-78
2022/04/27 08:23:44;;;;;;;7.40;4.30;;;;;;;15.00;67.44;102301.22;4969882;28;20035;-79
2022/04/27 08:26:10;;;;;;;7.65;4.10;;;;;;;15.16;65.46;102298.22;4970916;28;20046;-79
2022/04/27 08:28:39;;;;;;;8.38;4.80;;;;;;;15.48;62.95;102304.03;4933754;28;20041;-79
2022/04/27 08:31:06;;;;;;;8.40;4.15;;;;;;;15.66;64.71;102292.56;4952266;28;20133;-79
2022/04/27 08:33:32;;;;;;;9.30;4.28;;;;;;;16.31;61.67;102299.44;4954091;28;20394;-79
2022/04/27 08:35:57;;;;;;;4.30;3.50;;;;;;;16.43;59.17;102309.50;4972548;28;20046;-79
2022/04/27 08:38:23;;;;;;;11.40;4.68;;;;;;;15.22;65.04;102303.28;4970061;28;20039;-79
2022/04/27 08:40:49;;;;;;;8.00;3.90;;;;;;;14.94;66.39;102298.91;4955077;28;20027;-79
2022/04/27 08:43:15;;;;;;;4.97;2.97;;;;;;;15.42;62.19;102310.03;4967095;28;20043;-79
2022/04/27 08:45:43;;;;;;;8.30;3.80;;;;;;;14.88;67.16;102305.78;4972338;28;20038;-79
2022/04/27 08:48:10;;;;;;;12.20;3.60;;;;;;;15.20;64.16;102306.16;4971294;28;20066;-79
2022/04/27 08:50:36;;;;;;;10.80;3.63;;;;;;;16.27;60.11;102312.63;4968492;28;20027;-78
2022/04/27 08:53:02;;;;;;;9.30;3.88;;;;;;;15.91;59.65;102306.25;4987869;28;20033;-79
2022/04/27 08:55:28;;;;;;;11.30;3.45;;;;;;;15.58;61.25;102302.31;4973013;28;20039;-79
2022/04/27 08:58:15;;;;;;;13.40;4.20;;;;;;;16.13;62.04;102316.50;4974530;28;20105;-80
2022/04/27 09:00:44;;;;;;;7.75;3.75;;;;;;;16.40;56.58;102309.75;4986406;28;20027;-81
2022/04/27 09:03:22;;;;;;;11.38;3.50;;;;;;;15.75;61.73;102305.66;4957407;28;20042;-78
2022/04/27 09:05:55;;;;;;;8.35;3.75;;;;;;;15.91;56.35;102311.78;4984503;28;20049;-78
2022/04/27 09:08:24;;;;;;;7.25;3.75;;;;;;;15.54;57.95;102311.81;4967330;28;20033;-78
2022/04/27 09:10:50;;;;;;;7.65;3.53;;;;;;;15.39;60.61;102311.13;4969635;28;20050;-78
2022/04/27 09:13:16;;;;;;;9.75;3.70;;;;;;;16.41;57.31;102314.25;4973932;28;20483;-78
2022/04/27 09:15:42;;;;;;;7.85;3.53;;;;;;;16.22;56.75;102312.13;4956805;28;20035;-77
2022/04/27 09:21:00;;;;;;;6.65;3.78;;;;;;;16.00;56.99;102304.63;4970490;28;20133;-78
2022/04/27 09:23:38;;;;;;;11.82;4.03;;;;;;;15.48;59.83;102308.66;4972994;28;20163;-77
2022/04/27 09:26:27;;;;;;;13.35;4.35;;;;;;;15.63;61.42;102310.25;4973598;28;20046;-77
2022/04/27 09:28:53;;;;;;;6.88;4.60;;;;;;;16.02;59.75;102302.66;4951929;28;20136;-79
2022/04/27 09:31:30;;;;;;;13.57;3.95;;;;;;;16.20;58.70;102310.47;4966370;28;20034;-78
2022/04/27 09:33:59;;;;;;;10.70;4.47;;;;;;;15.71;60.43;102309.66;4987494;28;20475;-77
2022/04/27 09:36:25;;;;;;;11.90;4.38;;;;;;;15.80;58.71;102311.72;4972385;28;20054;-77
2022/04/27 09:38:52;;;;;;;11.93;4.25;;;;;;;15.90;57.89;102307.25;4967806;28;20034;-77
2022/04/27 09:41:42;;;;;;;6.55;4.43;;;;;;;16.49;58.81;102308.13;4946704;28;20043;-78
2022/04/27 09:44:29;;;;;;;9.77;4.13;;;;;;;17.60;53.66;102321.09;4969432;28;20046;-77
2022/04/27 09:46:54;;;;;;;14.95;5.18;;;;;;;16.51;54.82;102319.94;4973184;28;20085;-77
2022/04/27 09:49:20;;;;;;;8.30;5.20;;;;;;;16.20;56.32;102316.88;4971453;28;20051;-78
2022/04/27 09:51:47;;;;;;;10.80;5.28;;;;;;;16.37;55.16;102322.94;4935925;28;20116;-80
2022/04/27 09:54:18;;;;;;;11.43;5.68;;;;;;;15.53;59.19;102310.09;4974988;28;20574;-80
2022/04/27 09:56:51;;;;;;;8.52;5.63;;;;;;;15.48;61.48;102317.84;4968728;28;20130;-80
2022/04/27 09:59:19;;;;;;;14.98;6.63;;;;;;;16.11;58.59;102309.31;4969010;28;20394;-79
2022/04/27 10:01:47;;;;;;;14.57;5.80;;;;;;;16.51;56.87;102315.31;4971548;28;20027;-80
2022/04/27 10:04:18;;;;;;;15.30;7.57;;;;;;;16.00;58.23;102315.69;4953343;28;20054;-79
2022/04/27 10:06:44;;;;;;;12.02;7.40;;;;;;;15.53;58.68;102312.84;4967582;28;20038;-78
2022/04/27 10:09:10;;;;;;;14.48;6.85;;;;;;;15.49;57.92;102310.44;4961005;28;20042;-79
2022/04/27 10:11:37;;;;;;;13.88;6.63;;;;;;;16.46;56.57;102319.41;4953510;28;20035;-78
2022/04/27 10:14:02;;;;;;;14.40;6.80;;;;;;;16.81;58.66;102319.31;4971256;28;20039;-78
2022/04/27 10:16:29;;;;;;;13.38;7.30;;;;;;;16.39;57.68;102313.50;4950918;28;20054;-79
2022/04/27 10:18:55;;;;;;;10.52;6.88;;;;;;;16.52;54.50;102311.50;4985581;28;20132;-78
2022/04/27 10:21:43;;;;;;;17.50;7.88;;;;;;;16.73;53.10;102308.00;4976719;28;20031;-78
2022/04/27 10:24:12;;;;;;;12.55;8.18;;;;;;;16.65;57.25;102303.09;4984157;28;20035;-78
2022/04/27 10:26:40;;;;;;;12.52;8.13;;;;;;;16.36;57.12;102299.94;4973013;28;20031;-79
2022/04/27 10:29:06;;;;;;;14.50;8.25;;;;;;;16.61;56.44;102306.22;4970980;28;20054;-79
2022/04/27 10:31:42;;;;;;;17.90;9.38;;;;;;;16.15;56.10;102310.81;4967548;28;20034;-79
2022/04/27 10:34:19;;;;;;;15.82;8.63;;;;;;;16.56;55.02;102303.88;4975400;28;20039;-78
2022/04/27 10:36:47;;;;;;;16.80;8.88;;;;;;;15.92;55.09;102304.34;4973665;28;20121;-79
2022/04/27 10:39:12;;;;;;;17.65;9.02;;;;;;;16.31;56.45;102302.19;4975513;28;20035;-79
2022/04/27 10:41:48;;;;;;;13.18;8.18;;;;;;;16.34;61.40;102291.75;4983386;28;20045;-79
2022/04/27 10:44:13;;;;;;;13.23;8.52;;;;;;;17.02;55.77;102308.41;4948455;28;20046;-80
2022/04/27 10:46:43;;;;;;;15.05;9.18;;;;;;;17.00;53.77;102302.09;4975842;28;20039;-80
2022/04/27 10:49:25;;;;;;;17.80;9.60;;;;;;;15.90;56.86;102298.09;4976066;28;20042;-79
2022/04/27 10:52:06;;;;;;;18.02;9.25;;;;;;;16.08;56.92;102295.75;4959312;28;20489;-79
2022/04/27 10:54:34;;;;;;;19.88;9.60;;;;;;;16.15;57.43;102295.16;4973755;28;20027;-78
2022/04/27 10:57:15;;;;;;;16.20;9.68;;;;;;;16.09;56.03;102295.63;4964722;28;20038;-78
2022/04/27 10:59:49;;;;;;;16.02;9.00;;;;;;;16.59;58.54;102299.97;4974018;28;20039;-80
2022/04/27 11:02:41;;;;;;;14.70;9.00;;;;;;;16.99;59.05;102288.41;4958196;28;20038;-79
2022/04/27 11:05:10;;;;;;;16.73;9.20;;;;;;;16.45;55.94;102295.56;4971523;28;20062;-79
2022/04/27 11:07:50;;;;;;;18.30;9.38;;;;;;;16.34;58.76;102297.28;4971574;28;20072;-79
2022/04/27 11:10:21;;;;;;;20.23;9.30;;;;;;;16.59;57.01;102299.97;4990259;28;20038;-78
2022/04/27 11:12:55;;;;;;;18.38;10.07;;;;;;;15.72;58.04;102286.56;4988291;28;20466;-78
2022/04/27 11:15:26;;;;;;;16.75;9.60;;;;;;;16.63;55.31;102288.53;4987834;28;20054;-79
2022/04/27 11:17:55;;;;;;;18.60;9.57;;;;;;;16.39;56.85;102304.34;4941348;28;20181;-78
2022/04/27 11:20:27;;;;;;;22.08;11.15;;;;;;;16.29;56.84;102294.03;4970406;28;20050;-79
2022/04/27 11:22:53;;;;;;;17.15;10.18;;;;;;;16.77;57.82;102290.13;4987105;28;20950;-80
2022/04/27 11:25:23;;;;;;;23.80;10.20;;;;;;;16.47;57.04;102290.78;4990259;28;20023;-78
2022/04/27 11:27:49;;;;;;;22.77;9.68;;;;;;;17.01;58.50;102284.50;4972953;28;20479;-78
2022/04/27 11:30:15;;;;;;;20.33;9.82;;;;;;;16.90;56.36;102287.28;4969782;28;20042;-79